Time;durP1;ratioP1;P1;durP2;ratioP2;P2;SDS_P1;SDS_P2;PMS_P1;PMS_P2;Temp;Humidity;BMP_temperature;BMP_pressure;BME280_temperature;BME280_humidity;BME280_pressure;Samples;Min_cycle;Max_cycle;Signal;HPM_P1;HPM_P2
2022/03/29 00:00:20;;;;;;;24.77;14.88;;;;;;;;;;5015525;28;20466;-70
2022/03/29 00:02:46;;;;;;;25.50;15.55;;;;;;;;;;5020618;28;20038;-70
2022/03/29 00:05:12;;;;;;;27.33;15.73;;;;;;;;;;5021021;28;20030;-71
2022/03/29 00:07:38;;;;;;;28.60;15.88;;;;;;;;;;5051654;22;20489;-68
2022/03/29 00:10:06;;;;;;;25.20;15.68;;;;;;;;;;5034625;28;20041;-68
2022/03/29 00:12:33;;;;;;;24.90;13.98;;;;;;;;;;5051450;28;20021;-68
2022/03/29 00:14:59;;;;;;;24.70;15.63;;;;;;;;;;5052532;28;20033;-69
2022/03/29 00:17:25;;;;;;;23.75;15.15;;;;;;;;;;5032842;28;20021;-67
2022/03/29 00:19:50;;;;;;;26.98;15.43;;;;;;;;;;5033370;28;20219;-68
2022/03/29 00:22:17;;;;;;;29.48;14.70;;;;;;;;;;5032692;28;20037;-69
2022/03/29 00:24:43;;;;;;;27.98;15.35;;;;;;;;;;5032073;28;20140;-68
2022/03/29 00:27:09;;;;;;;27.20;15.27;;;;;;;;;;5032599;28;20125;-68
2022/03/29 00:29:37;;;;;;;27.33;15.02;;;;;;;;;;5032488;28;20073;-67
2022/03/29 00:32:03;;;;;;;24.38;15.43;;;;;;;;;;5030454;28;20482;-68
2022/03/29 00:34:29;;;;;;;25.08;14.82;;;;;;;;;;5032587;28;20025;-69
2022/03/29 00:36:55;;;;;;;28.63;16.00;;;;;;;;;;5031785;28;20041;-68
2022/03/29 00:39:21;;;;;;;28.40;16.67;;;;;;;;;;5032509;28;20030;-68
2022/03/29 00:41:47;;;;;;;29.70;16.60;;;;;;;;;;5031627;28;20545;-68
2022/03/29 00:44:15;;;;;;;28.98;16.15;;;;;;;;;;5032377;28;20307;-69
2022/03/29 00:46:41;;;;;;;24.73;15.25;;;;;;;;;;5032457;28;20428;-69
2022/03/29 00:49:07;;;;;;;27.63;15.50;;;;;;;;;;5032040;28;20030;-69
2022/03/29 00:51:34;;;;;;;27.08;15.48;;;;;;;;;;5031910;28;20079;-68
2022/03/29 00:54:00;;;;;;;28.10;16.33;;;;;;;;;;5032351;28;20021;-69
2022/03/29 00:56:27;;;;;;;27.42;15.80;;;;;;;;;;5030796;28;20021;-68
2022/03/29 00:58:53;;;;;;;24.85;15.10;;;;;;;;;;5032176;28;20029;-68
2022/03/29 01:01:19;;;;;;;23.80;15.35;;;;;;;;;;5032090;28;20061;-68
2022/03/29 01:03:45;;;;;;;29.95;16.90;;;;;;;;;;5030647;28;20029;-68
2022/03/29 01:06:11;;;;;;;25.48;15.68;;;;;;;;;;5031678;28;20119;-69
2022/03/29 01:08:37;;;;;;;30.95;16.73;;;;;;;;;;5032355;28;20365;-68
2022/03/29 01:11:06;;;;;;;31.90;15.93;;;;;;;;;;5033001;28;20040;-68
2022/03/29 01:13:32;;;;;;;29.52;16.73;;;;;;;;;;5034346;28;20029;-68
2022/03/29 01:17:38;;;;;;;26.50;15.45;;;;;;;;;;5032715;28;20120;-67
2022/03/29 01:18:48;;;;;;;26.50;16.23;;;;;;;;;;5032310;28;20095;-68
2022/03/29 01:21:20;;;;;;;25.30;15.23;;;;;;;;;;5031916;28;20039;-68
2022/03/29 01:23:46;;;;;;;25.45;15.07;;;;;;;;;;5031814;28;20079;-68
2022/03/29 01:26:14;;;;;;;24.85;15.50;;;;;;;;;;5031138;28;20025;-68
2022/03/29 01:28:40;;;;;;;25.30;15.32;;;;;;;;;;5031486;28;20037;-67
2022/03/29 01:31:07;;;;;;;25.98;16.05;;;;;;;;;;5031345;28;20037;-67
2022/03/29 01:33:33;;;;;;;28.13;15.55;;;;;;;;;;5032128;28;20021;-68
2022/03/29 01:36:00;;;;;;;25.48;14.63;;;;;;;;;;5030837;28;20367;-68
2022/03/29 01:38:26;;;;;;;25.23;15.18;;;;;;;;;;5031212;28;20083;-68
2022/03/29 01:40:51;;;;;;;29.60;16.75;;;;;;;;;;5030927;28;20026;-69
2022/03/29 01:43:17;;;;;;;28.95;15.95;;;;;;;;;;5031043;28;20042;-68
2022/03/29 01:45:43;;;;;;;25.83;15.40;;;;;;;;;;5031906;28;20036;-68
2022/03/29 01:48:09;;;;;;;28.67;16.17;;;;;;;;;;5030411;28;20090;-68
2022/03/29 01:50:35;;;;;;;27.05;15.30;;;;;;;;;;5031262;28;20056;-68
2022/03/29 01:53:01;;;;;;;25.80;15.20;;;;;;;;;;5027206;28;20056;-68
2022/03/29 01:55:27;;;;;;;24.80;15.10;;;;;;;;;;5031796;28;20034;-69
2022/03/29 01:57:53;;;;;;;25.95;15.25;;;;;;;;;;5030554;28;20533;-67
2022/03/29 02:00:33;;;;;;;27.88;16.13;;;;;;;;;;5029717;28;20083;-68
2022/03/29 02:03:00;;;;;;;28.33;15.77;;;;;;;;;;5031285;28;20116;-68
2022/03/29 02:05:26;;;;;;;28.00;16.25;;;;;;;;;;5030999;28;20029;-68
2022/03/29 02:07:52;;;;;;;27.73;15.82;;;;;;;;;;5031242;28;20390;-68
2022/03/29 02:10:19;;;;;;;32.30;18.25;;;;;;;;;;5034705;28;20057;-68
2022/03/29 02:12:46;;;;;;;30.52;16.98;;;;;;;;;;5035098;28;20078;-68
2022/03/29 02:15:12;;;;;;;26.27;16.25;;;;;;;;;;5035215;28;20025;-68
2022/03/29 02:17:39;;;;;;;28.65;16.77;;;;;;;;;;5034394;28;20033;-69
2022/03/29 02:20:06;;;;;;;28.80;17.23;;;;;;;;;;5035646;28;20123;-69
2022/03/29 02:22:32;;;;;;;31.17;17.33;;;;;;;;;;5035209;28;20033;-68
2022/03/29 02:24:58;;;;;;;29.90;16.77;;;;;;;;;;5035015;28;20045;-68
2022/03/29 02:27:24;;;;;;;32.35;17.48;;;;;;;;;;5034464;28;20036;-68
2022/03/29 02:29:50;;;;;;;31.52;17.55;;;;;;;;;;5035205;28;20029;-68
2022/03/29 02:32:16;;;;;;;34.15;18.48;;;;;;;;;;5034795;28;20117;-68
2022/03/29 02:34:42;;;;;;;31.10;17.00;;;;;;;;;;5034816;28;20113;-69
2022/03/29 02:37:10;;;;;;;29.17;17.35;;;;;;;;;;5034903;28;20481;-68
2022/03/29 02:39:36;;;;;;;33.50;18.33;;;;;;;;;;5035522;28;20108;-70
2022/03/29 02:42:02;;;;;;;33.97;18.52;;;;;;;;;;5034517;28;20052;-68
2022/03/29 02:44:28;;;;;;;31.88;18.70;;;;;;;;;;5034552;28;20059;-70
2022/03/29 02:46:56;;;;;;;33.28;19.33;;;;;;;;;;5032744;28;20025;-68
2022/03/29 02:49:23;;;;;;;31.73;18.88;;;;;;;;;;5033456;28;20025;-68
2022/03/29 02:51:49;;;;;;;32.47;19.27;;;;;;;;;;5034925;28;20030;-67
2022/03/29 02:54:15;;;;;;;30.85;17.88;;;;;;;;;;5034407;28;20033;-68
2022/03/29 02:56:41;;;;;;;30.98;17.75;;;;;;;;;;5033858;28;20055;-69
2022/03/29 02:59:08;;;;;;;31.27;18.33;;;;;;;;;;5034617;28;20462;-68
2022/03/29 03:01:34;;;;;;;31.77;19.10;;;;;;;;;;5037037;28;20037;-68
2022/03/29 03:04:00;;;;;;;33.40;18.90;;;;;;;;;;5035976;28;20055;-69
2022/03/29 03:06:26;;;;;;;31.65;18.45;;;;;;;;;;5035121;28;20042;-67
2022/03/29 03:08:52;;;;;;;34.58;19.00;;;;;;;;;;5038474;28;20029;-68
2022/03/29 03:11:18;;;;;;;36.45;18.95;;;;;;;;;;5034323;28;20092;-68
2022/03/29 03:13:44;;;;;;;31.63;19.38;;;;;;;;;;5033957;28;20037;-68
2022/03/29 03:16:10;;;;;;;32.50;20.23;;;;;;;;;;5033980;28;20105;-67
2022/03/29 03:18:36;;;;;;;32.50;18.40;;;;;;;;;;5038309;28;20040;-68
2022/03/29 03:21:02;;;;;;;34.47;18.90;;;;;;;;;;5040874;28;20030;-69
2022/03/29 03:23:28;;;;;;;34.88;19.25;;;;;;;;;;5036141;28;20034;-68
2022/03/29 03:25:54;;;;;;;34.97;19.15;;;;;;;;;;5039151;28;20064;-68
2022/03/29 03:28:21;;;;;;;32.97;18.65;;;;;;;;;;5052520;28;20037;-68
2022/03/29 03:30:47;;;;;;;32.47;19.02;;;;;;;;;;5052796;28;20029;-69
2022/03/29 03:33:13;;;;;;;30.90;18.35;;;;;;;;;;5053308;28;20136;-68
2022/03/29 03:35:39;;;;;;;35.65;19.27;;;;;;;;;;5055946;28;20017;-68
2022/03/29 03:38:05;;;;;;;33.55;19.92;;;;;;;;;;5057014;28;20049;-68
2022/03/29 03:40:31;;;;;;;37.55;20.75;;;;;;;;;;5056865;28;20037;-68
2022/03/29 03:43:00;;;;;;;35.33;19.75;;;;;;;;;;5057230;28;20046;-67
2022/03/29 03:45:26;;;;;;;33.63;19.15;;;;;;;;;;5056974;28;20044;-68
2022/03/29 03:47:52;;;;;;;34.00;19.65;;;;;;;;;;5056529;28;20037;-69
2022/03/29 03:50:18;;;;;;;37.45;20.60;;;;;;;;;;5055592;28;20109;-68
2022/03/29 03:52:44;;;;;;;38.97;20.60;;;;;;;;;;5051043;28;20018;-68
2022/03/29 03:55:10;;;;;;;34.45;19.70;;;;;;;;;;5082563;28;20060;-68
2022/03/29 03:57:36;;;;;;;29.98;19.20;;;;;;;;;;5052415;28;20067;-68
2022/03/29 04:00:03;;;;;;;36.33;21.65;;;;;;;;;;5044324;28;20033;-68
2022/03/29 04:02:29;;;;;;;37.30;19.08;;;;;;;;;;5036242;28;20068;-68
2022/03/29 04:04:55;;;;;;;36.42;20.27;;;;;;;;;;5032379;28;20052;-69
2022/03/29 04:07:21;;;;;;;34.63;19.95;;;;;;;;;;5033644;28;20522;-68
2022/03/29 04:09:46;;;;;;;35.28;19.33;;;;;;;;;;5033941;28;20437;-67
2022/03/29 04:12:12;;;;;;;35.17;19.77;;;;;;;;;;5034923;28;20025;-68
2022/03/29 04:14:39;;;;;;;36.08;20.33;;;;;;;;;;5035746;28;20049;-68
2022/03/29 04:17:05;;;;;;;36.40;19.98;;;;;;;;;;5032155;28;20397;-68
2022/03/29 04:19:31;;;;;;;37.40;20.20;;;;;;;;;;5034031;28;20029;-68
2022/03/29 04:21:57;;;;;;;36.53;19.88;;;;;;;;;;5035917;28;20143;-69
2022/03/29 04:24:24;;;;;;;40.42;22.20;;;;;;;;;;5039955;28;20029;-68
2022/03/29 04:26:51;;;;;;;39.63;21.27;;;;;;;;;;5036197;28;20076;-70
2022/03/29 04:29:17;;;;;;;38.45;20.45;;;;;;;;;;5033246;28;20120;-68
2022/03/29 04:31:43;;;;;;;34.58;19.55;;;;;;;;;;5033787;28;20484;-71
2022/03/29 04:34:09;;;;;;;35.47;20.50;;;;;;;;;;5033041;28;20099;-69
2022/03/29 04:36:35;;;;;;;39.80;20.98;;;;;;;;;;5032526;28;20039;-68
2022/03/29 04:39:01;;;;;;;37.55;20.70;;;;;;;;;;5031586;28;20033;-68
2022/03/29 04:41:28;;;;;;;36.00;20.13;;;;;;;;;;5034238;28;20033;-69
2022/03/29 04:43:54;;;;;;;35.92;21.17;;;;;;;;;;5033976;28;20085;-68
2022/03/29 04:46:20;;;;;;;36.92;21.10;;;;;;;;;;5033072;28;20029;-68
2022/03/29 04:48:46;;;;;;;41.67;22.10;;;;;;;;;;5032195;28;20040;-68
2022/03/29 04:51:12;;;;;;;33.47;20.42;;;;;;;;;;5032241;28;20021;-68
2022/03/29 04:53:38;;;;;;;38.33;21.63;;;;;;;;;;5032167;28;20116;-68
2022/03/29 04:56:04;;;;;;;41.58;21.55;;;;;;;;;;5032067;28;20100;-68
2022/03/29 04:58:30;;;;;;;37.42;20.85;;;;;;;;;;5032066;28;20041;-67
2022/03/29 05:00:58;;;;;;;39.97;22.80;;;;;;;;;;5032453;28;20393;-69
2022/03/29 05:03:24;;;;;;;42.15;22.15;;;;;;;;;;5031681;28;20026;-68
2022/03/29 05:05:50;;;;;;;39.00;20.85;;;;;;;;;;5031855;28;20111;-68
2022/03/29 05:08:16;;;;;;;43.50;22.52;;;;;;;;;;5032502;28;20103;-69
2022/03/29 05:10:42;;;;;;;37.85;21.70;;;;;;;;;;5032371;28;20030;-69
2022/03/29 05:13:09;;;;;;;40.13;20.90;;;;;;;;;;5030396;28;20036;-68
2022/03/29 05:15:35;;;;;;;39.03;21.15;;;;;;;;;;5031875;28;20474;-67
2022/03/29 05:18:01;;;;;;;36.67;19.98;;;;;;;;;;5031754;28;20043;-68
2022/03/29 05:20:27;;;;;;;37.33;21.48;;;;;;;;;;5032230;28;20116;-69
2022/03/29 05:22:55;;;;;;;36.75;20.98;;;;;;;;;;5031950;28;20136;-69
2022/03/29 05:25:22;;;;;;;40.05;19.98;;;;;;;;;;5032121;28;20029;-69
2022/03/29 05:27:48;;;;;;;38.65;21.02;;;;;;;;;;5031398;28;20039;-69
2022/03/29 05:30:15;;;;;;;43.45;21.60;;;;;;;;;;5033470;28;20091;-69
2022/03/29 05:32:41;;;;;;;44.88;21.77;;;;;;;;;;5032873;28;20056;-68
2022/03/29 05:35:08;;;;;;;42.28;22.35;;;;;;;;;;5018089;28;20474;-67
2022/03/29 05:37:34;;;;;;;38.10;21.33;;;;;;;;;;5030331;28;20029;-69
2022/03/29 05:40:00;;;;;;;40.30;21.05;;;;;;;;;;5031617;28;20069;-71
2022/03/29 05:42:27;;;;;;;39.97;21.20;;;;;;;;;;5015128;28;20060;-71
2022/03/29 05:44:52;;;;;;;35.08;20.17;;;;;;;;;;5033447;28;20040;-73
2022/03/29 05:50:03;;;;;;;40.05;21.65;;;;;;;;;;5029159;28;20111;-68
2022/03/29 05:52:29;;;;;;;41.80;21.92;;;;;;;;;;5015232;28;20030;-68
2022/03/29 05:54:56;;;;;;;41.45;21.90;;;;;;;;;;5013277;28;20076;-69
2022/03/29 05:57:23;;;;;;;39.05;21.52;;;;;;;;;;5043661;28;20071;-69
2022/03/29 05:59:49;;;;;;;42.88;22.25;;;;;;;;;;5013041;28;20030;-68
2022/03/29 06:02:15;;;;;;;43.83;22.55;;;;;;;;;;5011581;28;20030;-69
2022/03/29 06:04:41;;;;;;;42.53;22.23;;;;;;;;;;5045514;28;20034;-70
2022/03/29 06:07:07;;;;;;;42.53;22.58;;;;;;;;;;5063724;22;20053;-66
2022/03/29 06:09:34;;;;;;;39.38;21.42;;;;;;;;;;5078678;28;20037;-68
2022/03/29 06:12:01;;;;;;;42.35;22.13;;;;;;;;;;5063021;28;20056;-66
2022/03/29 06:14:27;;;;;;;42.65;23.27;;;;;;;;;;5064630;28;20029;-65
2022/03/29 06:16:52;;;;;;;47.78;22.80;;;;;;;;;;5063632;28;20036;-66
2022/03/29 06:19:19;;;;;;;42.92;23.58;;;;;;;;;;5053967;28;20621;-66
2022/03/29 06:21:45;;;;;;;47.60;22.98;;;;;;;;;;5041911;28;20036;-67
2022/03/29 06:24:11;;;;;;;45.45;22.42;;;;;;;;;;5034175;28;20096;-68
2022/03/29 06:26:39;;;;;;;43.95;23.85;;;;;;;;;;5035995;28;20393;-66
2022/03/29 06:29:05;;;;;;;46.53;23.20;;;;;;;;;;5034797;28;20033;-66
2022/03/29 06:31:31;;;;;;;44.80;22.25;;;;;;;;;;5048785;28;20061;-67
2022/03/29 06:33:57;;;;;;;43.03;21.90;;;;;;;;;;5038459;28;20075;-67
2022/03/29 06:36:24;;;;;;;44.47;22.70;;;;;;;;;;5039993;28;20037;-67
2022/03/29 06:38:50;;;;;;;47.08;23.27;;;;;;;;;;5039842;28;20048;-65
2022/03/29 06:41:16;;;;;;;49.33;24.48;;;;;;;;;;5033220;28;20085;-67
2022/03/29 06:43:42;;;;;;;45.80;21.65;;;;;;;;;;5033752;28;20122;-67
2022/03/29 06:46:09;;;;;;;46.20;22.90;;;;;;;;;;5032109;28;20036;-67
2022/03/29 06:48:35;;;;;;;46.13;21.98;;;;;;;;;;5032352;28;20038;-67
2022/03/29 06:51:01;;;;;;;38.38;21.15;;;;;;;;;;5032031;28;20048;-69
2022/03/29 06:53:28;;;;;;;45.05;22.70;;;;;;;;;;5032552;28;20075;-66
2022/03/29 06:55:54;;;;;;;48.00;21.42;;;;;;;;;;5036627;28;20378;-67
2022/03/29 06:58:20;;;;;;;40.88;21.73;;;;;;;;;;5040978;28;20051;-67
2022/03/29 07:00:47;;;;;;;41.00;21.38;;;;;;;;;;5054851;28;20385;-66
2022/03/29 07:03:13;;;;;;;39.90;21.08;;;;;;;;;;5056024;28;20098;-66
2022/03/29 07:05:42;;;;;;;35.45;18.42;;;;;;;;;;5058759;28;20025;-67
2022/03/29 07:08:10;;;;;;;34.80;18.40;;;;;;;;;;5050742;28;20030;-69
2022/03/29 07:13:22;;;;;;;35.65;18.90;;;;;;;;;;5056756;28;20121;-67
2022/03/29 07:15:49;;;;;;;37.53;19.10;;;;;;;;;;5057284;28;20029;-71
2022/03/29 07:18:15;;;;;;;42.90;21.08;;;;;;;;;;5040615;28;20075;-67
2022/03/29 07:20:41;;;;;;;39.85;18.83;;;;;;;;;;5035504;28;20025;-67
2022/03/29 07:23:07;;;;;;;34.83;18.23;;;;;;;;;;5037798;28;20029;-67
2022/03/29 07:25:34;;;;;;;30.50;16.83;;;;;;;;;;5045550;28;20116;-66
2022/03/29 07:28:01;;;;;;;38.05;18.23;;;;;;;;;;5030484;28;20548;-65
2022/03/29 07:30:27;;;;;;;34.53;17.75;;;;;;;;;;5035566;28;20025;-66
2022/03/29 07:32:54;;;;;;;35.17;17.48;;;;;;;;;;5036843;28;20034;-66
2022/03/29 07:35:22;;;;;;;31.52;17.23;;;;;;;;;;5036870;28;20025;-67
2022/03/29 07:37:49;;;;;;;33.85;18.85;;;;;;;;;;5034879;28;20038;-65
2022/03/29 07:40:16;;;;;;;34.28;17.65;;;;;;;;;;5045634;28;20037;-65
2022/03/29 07:42:42;;;;;;;28.67;15.85;;;;;;;;;;5038605;28;20112;-64
2022/03/29 07:45:11;;;;;;;32.25;16.55;;;;;;;;;;5056247;28;20142;-66
2022/03/29 07:47:37;;;;;;;33.85;15.85;;;;;;;;;;5049764;28;20144;-66
2022/03/29 07:50:06;;;;;;;30.17;15.23;;;;;;;;;;5034991;28;20057;-65
2022/03/29 07:52:33;;;;;;;28.60;15.48;;;;;;;;;;5034623;28;20040;-66
2022/03/29 07:54:59;;;;;;;30.98;16.83;;;;;;;;;;5034923;28;20026;-66
2022/03/29 07:57:25;;;;;;;27.58;14.98;;;;;;;;;;5034841;28;20036;-65
2022/03/29 07:59:51;;;;;;;29.63;15.80;;;;;;;;;;5034950;28;20029;-66
2022/03/29 08:02:17;;;;;;;30.90;15.27;;;;;;;;;;5041996;28;20028;-65
2022/03/29 08:04:43;;;;;;;26.17;15.35;;;;;;;;;;5045489;28;20029;-66
2022/03/29 08:07:09;;;;;;;31.20;14.52;;;;;;;;;;5032566;28;20060;-66
2022/03/29 08:09:35;;;;;;;23.60;14.80;;;;;;;;;;5034273;28;20049;-66
2022/03/29 08:12:01;;;;;;;23.13;14.02;;;;;;;;;;5040498;28;20690;-66
2022/03/29 08:14:27;;;;;;;26.73;15.25;;;;;;;;;;5034413;28;20064;-66
2022/03/29 08:16:55;;;;;;;28.98;15.38;;;;;;;;;;5036319;28;20421;-66
2022/03/29 08:19:21;;;;;;;23.63;13.13;;;;;;;;;;5033955;28;20083;-66
2022/03/29 08:21:50;;;;;;;22.08;13.20;;;;;;;;;;5033487;28;20521;-67
2022/03/29 08:24:24;;;;;;;23.67;13.50;;;;;;;;;;5033157;28;20117;-68
2022/03/29 08:26:52;;;;;;;24.15;14.02;;;;;;;;;;5035316;28;20026;-65
2022/03/29 08:29:20;;;;;;;20.85;13.23;;;;;;;;;;5036051;28;20037;-67
2022/03/29 08:31:47;;;;;;;23.25;14.02;;;;;;;;;;5046457;28;20028;-65
2022/03/29 08:34:14;;;;;;;23.63;14.57;;;;;;;;;;5034051;28;20021;-66
2022/03/29 08:36:40;;;;;;;26.08;14.88;;;;;;;;;;5034705;28;20442;-66
2022/03/29 08:39:07;;;;;;;22.40;13.95;;;;;;;;;;5033822;28;20026;-67
2022/03/29 08:41:36;;;;;;;25.42;14.02;;;;;;;;;;5033148;28;20029;-67
2022/03/29 08:44:02;;;;;;;21.08;13.73;;;;;;;;;;5035204;28;20030;-67
2022/03/29 08:46:32;;;;;;;21.50;13.20;;;;;;;;;;5034677;28;20089;-66
2022/03/29 08:48:58;;;;;;;21.00;12.98;;;;;;;;;;5033107;28;20029;-67
2022/03/29 08:51:24;;;;;;;21.45;13.80;;;;;;;;;;5034103;28;20056;-67
2022/03/29 08:53:50;;;;;;;22.45;14.15;;;;;;;;;;5032529;28;20025;-67
2022/03/29 08:56:16;;;;;;;26.27;15.18;;;;;;;;;;5035414;28;20025;-67
2022/03/29 08:58:42;;;;;;;24.05;15.23;;;;;;;;;;5036585;28;20308;-67
2022/03/29 09:01:08;;;;;;;28.15;15.85;;;;;;;;;;5038460;28;20032;-68
2022/03/29 09:03:34;;;;;;;26.50;15.60;;;;;;;;;;5031760;28;20654;-67
2022/03/29 09:06:07;;;;;;;25.42;15.27;;;;;;;;;;5034858;28;20033;-67
2022/03/29 09:08:46;;;;;;;24.90;14.60;;;;;;;;;;5025075;28;20485;-68
2022/03/29 09:11:12;;;;;;;24.50;14.80;;;;;;;;;;5043697;28;20021;-68
2022/03/29 09:13:39;;;;;;;27.20;16.17;;;;;;;;;;5050613;28;20053;-66
2022/03/29 09:16:07;;;;;;;22.92;14.73;;;;;;;;;;5036771;28;20036;-67
2022/03/29 09:18:34;;;;;;;31.10;15.10;;;;;;;;;;5060881;28;20476;-67
2022/03/29 09:21:13;;;;;;;25.55;14.52;;;;;;;;;;5057998;28;20041;-67
2022/03/29 09:23:40;;;;;;;22.00;13.50;;;;;;;;;;5041516;28;20072;-67
2022/03/29 09:26:07;;;;;;;21.52;14.23;;;;;;;;;;5050433;28;20021;-68
2022/03/29 09:28:37;;;;;;;25.42;15.18;;;;;;;;;;5066506;28;20040;-67
2022/03/29 09:31:16;;;;;;;28.00;14.30;;;;;;;;;;5042609;28;20032;-68
2022/03/29 09:33:43;;;;;;;27.90;14.52;;;;;;;;;;5033759;28;20022;-68
2022/03/29 09:36:12;;;;;;;25.33;14.30;;;;;;;;;;5031734;28;20497;-65
2022/03/29 09:38:42;;;;;;;25.02;14.15;;;;;;;;;;5033206;28;20033;-66
2022/03/29 09:41:22;;;;;;;26.00;14.68;;;;;;;;;;5033023;28;20025;-66
2022/03/29 09:44:00;;;;;;;26.27;14.55;;;;;;;;;;5033060;28;20029;-72
2022/03/29 09:46:27;;;;;;;26.77;15.00;;;;;;;;;;5032025;28;20033;-66
2022/03/29 09:48:58;;;;;;;30.98;15.27;;;;;;;;;;5031244;28;20029;-67
2022/03/29 09:51:26;;;;;;;28.10;15.85;;;;;;;;;;5030940;28;20060;-68
2022/03/29 09:53:54;;;;;;;27.63;15.15;;;;;;;;;;5033229;28;20316;-68
2022/03/29 09:56:24;;;;;;;29.83;16.13;;;;;;;;;;5031548;28;20022;-68
2022/03/29 09:59:04;;;;;;;31.27;17.05;;;;;;;;;;5039378;28;20025;-67
2022/03/29 10:01:31;;;;;;;26.75;15.30;;;;;;;;;;5046372;28;20026;-67
2022/03/29 10:03:57;;;;;;;25.55;15.57;;;;;;;;;;5039653;28;20033;-67
2022/03/29 10:06:23;;;;;;;26.38;15.50;;;;;;;;;;5032419;28;20481;-68
2022/03/29 10:11:40;;;;;;;29.67;15.45;;;;;;;;;;5033133;28;20123;-67
2022/03/29 10:14:07;;;;;;;25.88;14.95;;;;;;;;;;5034191;28;20485;-66
2022/03/29 10:16:33;;;;;;;26.60;15.18;;;;;;;;;;5036214;28;20014;-67
2022/03/29 10:19:00;;;;;;;26.90;14.65;;;;;;;;;;5039121;28;20044;-66
2022/03/29 10:21:26;;;;;;;25.90;12.80;;;;;;;;;;5030935;28;20619;-67
2022/03/29 10:23:52;;;;;;;26.92;13.95;;;;;;;;;;5032369;28;20029;-68
2022/03/29 10:26:24;;;;;;;21.92;13.20;;;;;;;;;;5032074;28;20025;-67
2022/03/29 10:28:51;;;;;;;23.60;14.45;;;;;;;;;;5036230;28;20029;-69
2022/03/29 10:31:30;;;;;;;26.10;13.80;;;;;;;;;;5037473;28;20052;-68
2022/03/29 10:34:16;;;;;;;22.77;14.05;;;;;;;;;;5034614;28;20017;-67
2022/03/29 10:37:01;;;;;;;23.05;13.40;;;;;;;;;;5037112;28;20113;-67
2022/03/29 10:39:39;;;;;;;24.33;13.48;;;;;;;;;;5047994;28;20037;-67
2022/03/29 10:42:24;;;;;;;24.67;13.75;;;;;;;;;;5044351;28;20037;-66
2022/03/29 10:45:00;;;;;;;24.23;13.82;;;;;;;;;;5035600;28;20029;-66
2022/03/29 10:47:26;;;;;;;23.17;13.00;;;;;;;;;;5033737;28;20033;-68
2022/03/29 10:49:52;;;;;;;26.10;12.68;;;;;;;;;;5035785;28;20018;-67
2022/03/29 10:52:21;;;;;;;21.00;12.85;;;;;;;;;;5035575;28;20496;-67
2022/03/29 10:54:48;;;;;;;22.88;12.80;;;;;;;;;;5051404;28;20033;-67
2022/03/29 10:57:14;;;;;;;23.33;13.80;;;;;;;;;;5034682;28;20030;-66
2022/03/29 10:59:40;;;;;;;25.60;14.43;;;;;;;;;;5036109;28;20513;-67
2022/03/29 11:02:06;;;;;;;22.27;14.25;;;;;;;;;;5036691;28;20021;-67
2022/03/29 11:04:32;;;;;;;28.60;15.95;;;;;;;;;;5036064;28;20120;-67
2022/03/29 11:07:07;;;;;;;24.35;13.63;;;;;;;;;;5035853;28;20096;-67
2022/03/29 11:09:34;;;;;;;25.77;14.38;;;;;;;;;;5047816;28;20076;-67
2022/03/29 11:12:00;;;;;;;25.35;14.13;;;;;;;;;;5035470;28;20098;-68
2022/03/29 11:14:29;;;;;;;20.65;12.45;;;;;;;;;;5036413;28;20496;-67
2022/03/29 11:17:08;;;;;;;23.73;12.98;;;;;;;;;;5035114;28;20490;-67
2022/03/29 11:19:44;;;;;;;20.23;12.90;;;;;;;;;;5036677;28;20036;-69
2022/03/29 11:22:39;;;;;;;21.60;13.15;;;;;;;;;;5051271;28;20025;-67
2022/03/29 11:25:09;;;;;;;20.50;11.95;;;;;;;;;;5029467;28;20140;-66
2022/03/29 11:27:36;;;;;;;22.52;11.20;;;;;;;;;;5036556;28;20036;-66
2022/03/29 11:30:04;;;;;;;19.35;11.02;;;;;;;;;;5033003;28;20034;-67
2022/03/29 11:32:30;;;;;;;18.70;11.40;;;;;;;;;;5034858;28;20529;-68
2022/03/29 11:34:57;;;;;;;21.33;11.80;;;;;;;;;;5042935;28;20021;-68
2022/03/29 11:37:27;;;;;;;19.23;11.35;;;;;;;;;;5055241;28;20025;-66
2022/03/29 11:39:53;;;;;;;15.90;10.57;;;;;;;;;;5040291;28;20029;-68
2022/03/29 11:42:19;;;;;;;15.80;9.75;;;;;;;;;;5049149;28;20025;-67
2022/03/29 11:44:48;;;;;;;15.98;9.15;;;;;;;;;;5045595;28;20067;-68
2022/03/29 11:47:14;;;;;;;15.60;9.60;;;;;;;;;;5052278;28;20492;-68
2022/03/29 11:49:41;;;;;;;13.45;8.15;;;;;;;;;;5035969;28;20022;-67
2022/03/29 11:52:11;;;;;;;16.50;7.80;;;;;;;;;;5035071;28;20052;-68
2022/03/29 11:54:41;;;;;;;15.80;8.52;;;;;;;;;;5023141;28;20501;-68
2022/03/29 11:57:17;;;;;;;13.18;7.07;;;;;;;;;;5033323;28;20335;-68
2022/03/29 11:59:43;;;;;;;12.07;6.38;;;;;;;;;;5015798;28;20052;-67
2022/03/29 12:02:09;;;;;;;10.30;5.35;;;;;;;;;;5022272;28;20021;-68
2022/03/29 12:04:39;;;;;;;10.80;5.75;;;;;;;;;;5033556;28;20029;-68
2022/03/29 12:07:05;;;;;;;13.55;6.68;;;;;;;;;;5051038;22;20041;-70
2022/03/29 12:09:31;;;;;;;12.52;6.32;;;;;;;;;;5032071;28;20069;-69
2022/03/29 12:11:59;;;;;;;8.30;5.25;;;;;;;;;;5015778;28;20025;-70
2022/03/29 12:14:25;;;;;;;11.73;6.28;;;;;;;;;;5031106;28;20117;-69
2022/03/29 12:16:59;;;;;;;11.13;5.25;;;;;;;;;;5016515;28;20509;-68
2022/03/29 12:19:26;;;;;;;16.33;5.65;;;;;;;;;;4998961;28;20030;-70
2022/03/29 12:21:54;;;;;;;11.95;5.65;;;;;;;;;;5016531;28;20089;-69
2022/03/29 12:24:20;;;;;;;10.82;5.32;;;;;;;;;;5015785;28;20025;-69
2022/03/29 12:26:48;;;;;;;10.93;5.13;;;;;;;;;;5014935;28;20100;-69
2022/03/29 12:29:15;;;;;;;9.00;4.85;;;;;;;;;;5035225;28;20462;-70
2022/03/29 12:31:41;;;;;;;10.90;4.32;;;;;;;;;;5037587;28;20486;-70
2022/03/29 12:34:08;;;;;;;12.73;5.65;;;;;;;;;;5019195;28;20112;-70
2022/03/29 12:36:38;;;;;;;9.73;5.15;;;;;;;;;;5035482;28;20033;-69
2022/03/29 12:39:05;;;;;;;12.45;5.18;;;;;;;;;;5016867;28;20456;-69
2022/03/29 12:41:33;;;;;;;9.70;4.43;;;;;;;;;;5029138;28;20033;-68
2022/03/29 12:44:01;;;;;;;7.30;3.22;;;;;;;;;;5013868;28;20040;-69
2022/03/29 12:46:28;;;;;;;9.85;3.92;;;;;;;;;;5013450;28;20030;-70
2022/03/29 12:48:55;;;;;;;8.05;3.30;;;;;;;;;;5028976;28;20057;-70
2022/03/29 12:51:31;;;;;;;8.27;3.63;;;;;;;;;;5013617;28;20026;-69
2022/03/29 12:53:58;;;;;;;10.70;4.20;;;;;;;;;;4993975;28;20037;-70
2022/03/29 12:56:28;;;;;;;8.35;3.80;;;;;;;;;;4995230;28;20045;-69
2022/03/29 12:58:55;;;;;;;10.32;3.88;;;;;;;;;;5015959;28;20034;-69
2022/03/29 13:01:26;;;;;;;7.93;4.22;;;;;;;;;;5015067;28;20517;-70
2022/03/29 13:03:52;;;;;;;8.23;4.18;;;;;;;;;;5014426;28;20022;-70
2022/03/29 13:06:20;;;;;;;10.68;4.20;;;;;;;;;;5029845;28;20137;-70
2022/03/29 13:08:47;;;;;;;9.45;5.18;;;;;;;;;;5028748;28;20057;-68
2022/03/29 13:11:17;;;;;;;11.70;5.78;;;;;;;;;;5018096;28;20036;-69
2022/03/29 13:13:43;;;;;;;11.32;6.25;;;;;;;;;;5018753;28;20058;-70
2022/03/29 13:16:19;;;;;;;13.98;6.28;;;;;;;;;;5018564;28;20022;-70
2022/03/29 13:18:49;;;;;;;11.10;5.90;;;;;;;;;;5019289;28;20089;-69
2022/03/29 13:21:16;;;;;;;21.27;11.23;;;;;;;;;;5020577;28;20178;-70
2022/03/29 13:23:42;;;;;;;11.52;5.95;;;;;;;;;;5034677;28;20573;-70
2022/03/29 13:26:09;;;;;;;10.27;6.03;;;;;;;;;;5037936;28;20072;-71
2022/03/29 13:28:35;;;;;;;9.52;6.20;;;;;;;;;;5021758;28;20500;-68
2022/03/29 13:31:02;;;;;;;11.85;6.15;;;;;;;;;;5013923;28;20030;-70
2022/03/29 13:33:28;;;;;;;12.15;5.82;;;;;;;;;;5013733;28;20383;-70
2022/03/29 13:35:54;;;;;;;8.85;4.63;;;;;;;;;;5012792;28;20202;-69
2022/03/29 13:38:21;;;;;;;9.32;4.35;;;;;;;;;;5028706;28;20037;-69
2022/03/29 13:40:48;;;;;;;14.45;5.10;;;;;;;;;;5012067;28;20034;-69
2022/03/29 13:43:14;;;;;;;10.82;5.15;;;;;;;;;;5012548;28;20505;-70
2022/03/29 13:45:41;;;;;;;10.73;5.10;;;;;;;;;;5010990;28;20399;-70
2022/03/29 13:48:07;;;;;;;9.20;5.03;;;;;;;;;;5012556;28;20105;-70
2022/03/29 13:50:34;;;;;;;9.50;5.03;;;;;;;;;;4995599;28;20124;-69
2022/03/29 13:53:00;;;;;;;10.27;4.50;;;;;;;;;;5012900;28;20114;-70
2022/03/29 13:55:26;;;;;;;16.15;4.90;;;;;;;;;;5012900;28;20109;-69
2022/03/29 13:57:52;;;;;;;12.48;5.07;;;;;;;;;;5031592;28;20103;-70
2022/03/29 14:00:19;;;;;;;10.52;5.80;;;;;;;;;;5038678;28;20109;-70
2022/03/29 14:02:45;;;;;;;11.75;4.78;;;;;;;;;;5015337;28;20041;-70
2022/03/29 14:05:11;;;;;;;10.30;4.05;;;;;;;;;;5030348;28;20048;-70
2022/03/29 14:07:37;;;;;;;10.32;4.25;;;;;;;;;;5027718;28;20042;-71
2022/03/29 14:10:03;;;;;;;7.88;4.25;;;;;;;;;;5029099;28;20065;-70
2022/03/29 14:12:29;;;;;;;9.45;4.03;;;;;;;;;;5012428;28;20048;-68
2022/03/29 14:14:55;;;;;;;9.25;4.00;;;;;;;;;;5012493;28;20018;-70
2022/03/29 14:17:21;;;;;;;10.07;4.10;;;;;;;;;;5012937;28;20045;-71
2022/03/29 14:19:51;;;;;;;10.95;5.63;;;;;;;;;;5027691;28;20453;-69
2022/03/29 14:22:17;;;;;;;14.48;5.65;;;;;;;;;;5027763;28;20068;-71
2022/03/29 14:24:43;;;;;;;13.05;5.90;;;;;;;;;;5012852;28;20022;-70
2022/03/29 14:27:10;;;;;;;10.15;4.70;;;;;;;;;;5012498;28;20390;-70
2022/03/29 14:29:36;;;;;;;8.38;4.70;;;;;;;;;;5012889;28;20026;-70